sensor_id;sensor_type;location;lat;lon;timestamp;P1;durP1;ratioP1;P2;durP2;ratioP2
29344;SDS011;16339;48.748;2.222;2023-10-19T00:01:07;17.55;;;2.28;;
29344;SDS011;16339;48.748;2.222;2023-10-19T00:03:34;18.73;;;2.40;;
29344;SDS011;16339;48.748;2.222;2023-10-19T00:06:06;20.05;;;2.80;;
29344;SDS011;16339;48.748;2.222;2023-10-19T00:08:32;14.80;;;2.42;;
29344;SDS011;16339;48.748;2.222;2023-10-19T00:11:06;15.57;;;2.30;;
29344;SDS011;16339;48.748;2.222;2023-10-19T00:13:37;21.23;;;2.40;;
29344;SDS011;16339;48.748;2.222;2023-10-19T00:16:05;25.38;;;3.08;;
29344;SDS011;16339;48.748;2.222;2023-10-19T00:18:39;19.50;;;2.22;;
29344;SDS011;16339;48.748;2.222;2023-10-19T00:21:10;12.10;;;2.33;;
29344;SDS011;16339;48.748;2.222;2023-10-19T00:23:44;14.63;;;2.65;;
29344;SDS011;16339;48.748;2.222;2023-10-19T00:26:12;21.85;;;3.38;;
29344;SDS011;16339;48.748;2.222;2023-10-19T00:28:44;14.40;;;2.55;;
29344;SDS011;16339;48.748;2.222;2023-10-19T00:31:18;8.85;;;2.35;;
29344;SDS011;16339;48.748;2.222;2023-10-19T00:33:48;20.20;;;3.25;;
29344;SDS011;16339;48.748;2.222;2023-10-19T00:36:20;26.98;;;2.75;;
29344;SDS011;16339;48.748;2.222;2023-10-19T00:38:50;23.80;;;2.60;;
29344;SDS011;16339;48.748;2.222;2023-10-19T00:41:21;22.10;;;3.50;;
29344;SDS011;16339;48.748;2.222;2023-10-19T00:43:54;24.67;;;3.63;;
29344;SDS011;16339;48.748;2.222;2023-10-19T00:46:28;26.25;;;3.42;;
29344;SDS011;16339;48.748;2.222;2023-10-19T00:49:04;27.42;;;3.80;;
29344;SDS011;16339;48.748;2.222;2023-10-19T00:51:37;24.40;;;3.50;;
29344;SDS011;16339;48.748;2.222;2023-10-19T00:54:21;24.60;;;3.38;;
29344;SDS011;16339;48.748;2.222;2023-10-19T00:56:57;29.38;;;3.25;;
29344;SDS011;16339;48.748;2.222;2023-10-19T00:59:29;25.33;;;3.65;;
29344;SDS011;16339;48.748;2.222;2023-10-19T01:02:01;25.15;;;4.10;;
29344;SDS011;16339;48.748;2.222;2023-10-19T01:04:42;29.17;;;3.55;;
29344;SDS011;16339;48.748;2.222;2023-10-19T01:07:15;32.47;;;3.83;;
29344;SDS011;16339;48.748;2.222;2023-10-19T01:09:47;32.50;;;3.88;;
29344;SDS011;16339;48.748;2.222;2023-10-19T01:12:18;28.88;;;3.80;;
29344;SDS011;16339;48.748;2.222;2023-10-19T01:15:01;31.90;;;3.55;;
29344;SDS011;16339;48.748;2.222;2023-10-19T01:17:38;21.95;;;3.38;;
29344;SDS011;16339;48.748;2.222;2023-10-19T01:20:10;29.02;;;4.00;;
29344;SDS011;16339;48.748;2.222;2023-10-19T01:22:50;37.25;;;4.32;;
29344;SDS011;16339;48.748;2.222;2023-10-19T01:25:31;24.58;;;3.67;;
29344;SDS011;16339;48.748;2.222;2023-10-19T01:28:06;34.90;;;3.95;;
29344;SDS011;16339;48.748;2.222;2023-10-19T01:30:36;18.00;;;3.20;;
29344;SDS011;16339;48.748;2.222;2023-10-19T01:33:05;35.22;;;3.78;;
29344;SDS011;16339;48.748;2.222;2023-10-19T01:35:37;33.10;;;4.25;;
29344;SDS011;16339;48.748;2.222;2023-10-19T01:38:22;31.48;;;4.30;;
29344;SDS011;16339;48.748;2.222;2023-10-19T01:40:51;34.30;;;3.83;;
29344;SDS011;16339;48.748;2.222;2023-10-19T01:43:24;27.13;;;4.20;;
29344;SDS011;16339;48.748;2.222;2023-10-19T01:45:51;30.33;;;4.20;;
29344;SDS011;16339;48.748;2.222;2023-10-19T01:48:29;27.73;;;4.30;;
29344;SDS011;16339;48.748;2.222;2023-10-19T01:51:01;28.75;;;3.17;;
29344;SDS011;16339;48.748;2.222;2023-10-19T01:53:32;25.15;;;3.78;;
29344;SDS011;16339;48.748;2.222;2023-10-19T01:56:06;42.92;;;4.00;;
29344;SDS011;16339;48.748;2.222;2023-10-19T01:58:38;35.28;;;3.92;;
29344;SDS011;16339;48.748;2.222;2023-10-19T02:01:07;26.27;;;3.47;;
29344;SDS011;16339;48.748;2.222;2023-10-19T02:03:40;30.10;;;3.42;;
29344;SDS011;16339;48.748;2.222;2023-10-19T02:06:07;28.30;;;3.70;;
29344;SDS011;16339;48.748;2.222;2023-10-19T02:08:45;25.67;;;3.47;;
29344;SDS011;16339;48.748;2.222;2023-10-19T02:11:15;32.70;;;4.05;;
29344;SDS011;16339;48.748;2.222;2023-10-19T02:13:47;25.98;;;3.90;;
29344;SDS011;16339;48.748;2.222;2023-10-19T02:16:14;23.17;;;3.50;;
29344;SDS011;16339;48.748;2.222;2023-10-19T02:18:47;26.73;;;3.60;;
29344;SDS011;16339;48.748;2.222;2023-10-19T02:21:14;31.50;;;4.50;;
29344;SDS011;16339;48.748;2.222;2023-10-19T02:23:49;26.88;;;3.75;;
29344;SDS011;16339;48.748;2.222;2023-10-19T02:26:23;33.83;;;4.03;;
29344;SDS011;16339;48.748;2.222;2023-10-19T02:28:51;23.33;;;3.35;;
29344;SDS011;16339;48.748;2.222;2023-10-19T02:31:21;31.23;;;3.55;;
29344;SDS011;16339;48.748;2.222;2023-10-19T02:33:51;29.70;;;3.45;;
29344;SDS011;16339;48.748;2.222;2023-10-19T02:36:26;23.67;;;3.33;;
29344;SDS011;16339;48.748;2.222;2023-10-19T02:38:56;33.97;;;3.78;;
29344;SDS011;16339;48.748;2.222;2023-10-19T02:41:32;34.25;;;4.40;;
29344;SDS011;16339;48.748;2.222;2023-10-19T02:44:00;30.75;;;3.47;;
29344;SDS011;16339;48.748;2.222;2023-10-19T02:46:34;18.23;;;3.10;;
29344;SDS011;16339;48.748;2.222;2023-10-19T02:49:05;26.67;;;3.85;;
29344;SDS011;16339;48.748;2.222;2023-10-19T02:51:40;33.95;;;4.25;;
29344;SDS011;16339;48.748;2.222;2023-10-19T02:54:12;27.05;;;3.55;;
29344;SDS011;16339;48.748;2.222;2023-10-19T02:56:45;33.47;;;3.75;;
29344;SDS011;16339;48.748;2.222;2023-10-19T02:59:15;27.55;;;3.85;;
29344;SDS011;16339;48.748;2.222;2023-10-19T03:01:48;30.70;;;3.88;;
29344;SDS011;16339;48.748;2.222;2023-10-19T03:04:16;21.45;;;3.80;;
29344;SDS011;16339;48.748;2.222;2023-10-19T03:06:43;27.05;;;3.30;;
29344;SDS011;16339;48.748;2.222;2023-10-19T03:09:17;36.95;;;3.97;;
29344;SDS011;16339;48.748;2.222;2023-10-19T03:11:48;34.75;;;3.78;;
29344;SDS011;16339;48.748;2.222;2023-10-19T03:14:21;27.10;;;3.58;;
29344;SDS011;16339;48.748;2.222;2023-10-19T03:16:50;19.40;;;3.40;;
29344;SDS011;16339;48.748;2.222;2023-10-19T03:19:20;34.05;;;4.05;;
29344;SDS011;16339;48.748;2.222;2023-10-19T03:21:46;28.00;;;4.10;;
29344;SDS011;16339;48.748;2.222;2023-10-19T03:24:22;25.38;;;3.72;;
29344;SDS011;16339;48.748;2.222;2023-10-19T03:27:00;30.77;;;4.10;;
29344;SDS011;16339;48.748;2.222;2023-10-19T03:29:34;30.15;;;3.88;;
29344;SDS011;16339;48.748;2.222;2023-10-19T03:32:04;22.30;;;2.95;;
29344;SDS011;16339;48.748;2.222;2023-10-19T03:34:35;21.00;;;3.47;;
29344;SDS011;16339;48.748;2.222;2023-10-19T03:37:03;26.25;;;3.47;;
29344;SDS011;16339;48.748;2.222;2023-10-19T03:39:40;28.92;;;3.75;;
29344;SDS011;16339;48.748;2.222;2023-10-19T03:42:12;24.33;;;3.13;;
29344;SDS011;16339;48.748;2.222;2023-10-19T03:44:44;31.38;;;3.95;;
29344;SDS011;16339;48.748;2.222;2023-10-19T03:47:18;27.30;;;3.40;;
29344;SDS011;16339;48.748;2.222;2023-10-19T03:49:51;27.95;;;3.50;;
29344;SDS011;16339;48.748;2.222;2023-10-19T03:52:21;31.30;;;3.88;;
29344;SDS011;16339;48.748;2.222;2023-10-19T03:54:58;29.25;;;3.55;;
29344;SDS011;16339;48.748;2.222;2023-10-19T03:57:33;38.83;;;4.07;;
29344;SDS011;16339;48.748;2.222;2023-10-19T04:00:10;30.85;;;3.35;;
29344;SDS011;16339;48.748;2.222;2023-10-19T04:02:44;23.90;;;3.50;;
29344;SDS011;16339;48.748;2.222;2023-10-19T04:05:13;25.30;;;3.55;;
29344;SDS011;16339;48.748;2.222;2023-10-19T04:07:45;34.53;;;3.78;;
29344;SDS011;16339;48.748;2.222;2023-10-19T04:10:22;27.58;;;3.35;;
29344;SDS011;16339;48.748;2.222;2023-10-19T04:13:03;33.92;;;4.07;;
29344;SDS011;16339;48.748;2.222;2023-10-19T04:15:34;24.50;;;3.47;;
29344;SDS011;16339;48.748;2.222;2023-10-19T04:18:04;24.70;;;3.65;;
29344;SDS011;16339;48.748;2.222;2023-10-19T04:20:36;21.80;;;3.47;;
29344;SDS011;16339;48.748;2.222;2023-10-19T04:23:23;21.48;;;3.20;;
29344;SDS011;16339;48.748;2.222;2023-10-19T04:26:02;23.17;;;3.60;;
29344;SDS011;16339;48.748;2.222;2023-10-19T04:28:36;31.27;;;3.22;;
29344;SDS011;16339;48.748;2.222;2023-10-19T04:31:14;26.35;;;3.45;;
29344;SDS011;16339;48.748;2.222;2023-10-19T04:33:44;29.65;;;3.72;;
29344;SDS011;16339;48.748;2.222;2023-10-19T04:36:14;18.13;;;3.05;;
29344;SDS011;16339;48.748;2.222;2023-10-19T04:38:47;22.42;;;3.20;;
29344;SDS011;16339;48.748;2.222;2023-10-19T04:41:20;19.67;;;3.92;;
29344;SDS011;16339;48.748;2.222;2023-10-19T04:46:17;17.35;;;3.17;;
29344;SDS011;16339;48.748;2.222;2023-10-19T04:48:47;24.20;;;3.72;;
29344;SDS011;16339;48.748;2.222;2023-10-19T04:51:16;39.45;;;4.10;;
29344;SDS011;16339;48.748;2.222;2023-10-19T04:53:46;32.60;;;3.80;;
29344;SDS011;16339;48.748;2.222;2023-10-19T04:56:16;34.90;;;4.40;;
29344;SDS011;16339;48.748;2.222;2023-10-19T04:58:47;29.80;;;3.60;;
29344;SDS011;16339;48.748;2.222;2023-10-19T05:01:16;30.77;;;4.18;;
29344;SDS011;16339;48.748;2.222;2023-10-19T05:03:45;20.98;;;3.38;;
29344;SDS011;16339;48.748;2.222;2023-10-19T05:06:13;32.22;;;4.32;;
29344;SDS011;16339;48.748;2.222;2023-10-19T05:08:43;35.00;;;3.72;;
29344;SDS011;16339;48.748;2.222;2023-10-19T05:11:14;13.10;;;3.25;;
29344;SDS011;16339;48.748;2.222;2023-10-19T05:13:43;23.40;;;3.58;;
29344;SDS011;16339;48.748;2.222;2023-10-19T05:18:46;24.42;;;3.70;;
29344;SDS011;16339;48.748;2.222;2023-10-19T05:23:46;39.47;;;6.55;;
29344;SDS011;16339;48.748;2.222;2023-10-19T05:28:48;17.58;;;4.07;;
29344;SDS011;16339;48.748;2.222;2023-10-19T05:31:22;29.38;;;4.18;;
29344;SDS011;16339;48.748;2.222;2023-10-19T05:33:53;22.00;;;3.40;;
29344;SDS011;16339;48.748;2.222;2023-10-19T05:36:22;18.70;;;4.00;;
29344;SDS011;16339;48.748;2.222;2023-10-19T05:38:53;24.48;;;3.90;;
29344;SDS011;16339;48.748;2.222;2023-10-19T05:41:24;18.15;;;3.40;;
29344;SDS011;16339;48.748;2.222;2023-10-19T05:43:53;30.98;;;3.75;;
29344;SDS011;16339;48.748;2.222;2023-10-19T05:46:25;20.60;;;3.83;;
29344;SDS011;16339;48.748;2.222;2023-10-19T05:48:54;18.10;;;3.00;;
29344;SDS011;16339;48.748;2.222;2023-10-19T05:51:28;24.17;;;3.55;;
29344;SDS011;16339;48.748;2.222;2023-10-19T05:53:57;18.83;;;3.58;;
29344;SDS011;16339;48.748;2.222;2023-10-19T05:56:29;20.23;;;3.33;;
29344;SDS011;16339;48.748;2.222;2023-10-19T05:59:01;27.42;;;3.80;;
29344;SDS011;16339;48.748;2.222;2023-10-19T06:01:34;22.40;;;3.58;;
29344;SDS011;16339;48.748;2.222;2023-10-19T06:04:03;25.17;;;3.60;;
29344;SDS011;16339;48.748;2.222;2023-10-19T06:06:32;27.83;;;3.47;;
29344;SDS011;16339;48.748;2.222;2023-10-19T06:09:01;24.50;;;3.78;;
29344;SDS011;16339;48.748;2.222;2023-10-19T06:11:30;32.72;;;3.85;;
29344;SDS011;16339;48.748;2.222;2023-10-19T06:14:02;13.07;;;2.95;;
29344;SDS011;16339;48.748;2.222;2023-10-19T06:16:35;14.88;;;3.30;;
29344;SDS011;16339;48.748;2.222;2023-10-19T06:19:03;24.42;;;4.05;;
29344;SDS011;16339;48.748;2.222;2023-10-19T06:21:32;22.60;;;3.47;;
29344;SDS011;16339;48.748;2.222;2023-10-19T06:24:02;18.75;;;3.95;;
29344;SDS011;16339;48.748;2.222;2023-10-19T06:26:31;21.45;;;4.13;;
29344;SDS011;16339;48.748;2.222;2023-10-19T06:29:00;18.33;;;4.28;;
29344;SDS011;16339;48.748;2.222;2023-10-19T06:31:30;23.42;;;4.63;;
29344;SDS011;16339;48.748;2.222;2023-10-19T06:34:01;30.15;;;4.47;;
29344;SDS011;16339;48.748;2.222;2023-10-19T06:36:31;28.38;;;4.03;;
29344;SDS011;16339;48.748;2.222;2023-10-19T06:39:00;21.20;;;4.35;;
29344;SDS011;16339;48.748;2.222;2023-10-19T06:41:31;16.55;;;3.90;;
29344;SDS011;16339;48.748;2.222;2023-10-19T06:44:00;23.45;;;5.07;;
29344;SDS011;16339;48.748;2.222;2023-10-19T06:46:29;35.08;;;4.53;;
29344;SDS011;16339;48.748;2.222;2023-10-19T06:48:57;17.63;;;4.05;;
29344;SDS011;16339;48.748;2.222;2023-10-19T06:54:43;24.88;;;5.00;;
29344;SDS011;16339;48.748;2.222;2023-10-19T07:10:47;26.37;;;4.03;;
29344;SDS011;16339;48.748;2.222;2023-10-19T07:13:21;15.07;;;4.00;;
29344;SDS011;16339;48.748;2.222;2023-10-19T07:15:50;21.05;;;3.95;;
29344;SDS011;16339;48.748;2.222;2023-10-19T07:21:37;15.98;;;3.22;;
29344;SDS011;16339;48.748;2.222;2023-10-19T08:01:46;11.40;;;3.05;;
29344;SDS011;16339;48.748;2.222;2023-10-19T08:13:07;23.55;;;2.70;;
29344;SDS011;16339;48.748;2.222;2023-10-19T08:28:02;10.07;;;2.63;;
29344;SDS011;16339;48.748;2.222;2023-10-19T08:30:34;14.20;;;2.42;;
29344;SDS011;16339;48.748;2.222;2023-10-19T08:39:46;6.95;;;1.90;;
29344;SDS011;16339;48.748;2.222;2023-10-19T08:42:15;11.90;;;2.35;;
29344;SDS011;16339;48.748;2.222;2023-10-19T08:44:47;10.40;;;2.20;;
29344;SDS011;16339;48.748;2.222;2023-10-19T08:53:04;11.75;;;1.90;;
29344;SDS011;16339;48.748;2.222;2023-10-19T08:58:53;8.17;;;1.90;;
29344;SDS011;16339;48.748;2.222;2023-10-19T09:04:58;7.93;;;1.75;;
29344;SDS011;16339;48.748;2.222;2023-10-19T09:07:47;12.55;;;1.73;;
29344;SDS011;16339;48.748;2.222;2023-10-19T09:10:40;11.02;;;1.98;;
29344;SDS011;16339;48.748;2.222;2023-10-19T09:17:14;9.93;;;1.95;;
29344;SDS011;16339;48.748;2.222;2023-10-19T09:19:43;16.23;;;2.05;;
29344;SDS011;16339;48.748;2.222;2023-10-19T09:22:13;12.85;;;1.67;;
29344;SDS011;16339;48.748;2.222;2023-10-19T09:24:48;3.15;;;1.25;;
29344;SDS011;16339;48.748;2.222;2023-10-19T09:27:18;7.25;;;1.98;;
29344;SDS011;16339;48.748;2.222;2023-10-19T09:29:48;5.18;;;1.60;;
29344;SDS011;16339;48.748;2.222;2023-10-19T09:32:20;13.55;;;1.60;;
29344;SDS011;16339;48.748;2.222;2023-10-19T09:34:49;14.82;;;1.80;;
29344;SDS011;16339;48.748;2.222;2023-10-19T09:37:20;6.57;;;1.80;;
29344;SDS011;16339;48.748;2.222;2023-10-19T09:39:51;6.77;;;1.80;;
29344;SDS011;16339;48.748;2.222;2023-10-19T09:42:21;14.18;;;2.15;;
29344;SDS011;16339;48.748;2.222;2023-10-19T09:44:58;7.63;;;1.75;;
29344;SDS011;16339;48.748;2.222;2023-10-19T09:47:34;8.60;;;1.83;;
29344;SDS011;16339;48.748;2.222;2023-10-19T09:50:06;8.50;;;1.50;;
29344;SDS011;16339;48.748;2.222;2023-10-19T09:52:36;6.32;;;1.52;;
29344;SDS011;16339;48.748;2.222;2023-10-19T09:55:08;5.83;;;1.60;;
29344;SDS011;16339;48.748;2.222;2023-10-19T09:57:43;5.93;;;1.95;;
29344;SDS011;16339;48.748;2.222;2023-10-19T10:00:17;10.18;;;1.73;;
29344;SDS011;16339;48.748;2.222;2023-10-19T10:02:51;11.05;;;2.08;;
29344;SDS011;16339;48.748;2.222;2023-10-19T10:11:12;11.48;;;1.75;;
29344;SDS011;16339;48.748;2.222;2023-10-19T10:13:49;7.07;;;1.30;;
29344;SDS011;16339;48.748;2.222;2023-10-19T10:16:20;4.40;;;1.90;;
29344;SDS011;16339;48.748;2.222;2023-10-19T10:19:22;9.60;;;1.98;;
29344;SDS011;16339;48.748;2.222;2023-10-19T10:24:53;6.43;;;1.42;;
29344;SDS011;16339;48.748;2.222;2023-10-19T10:27:24;4.03;;;1.23;;
29344;SDS011;16339;48.748;2.222;2023-10-19T10:30:04;4.68;;;1.50;;
29344;SDS011;16339;48.748;2.222;2023-10-19T10:42:28;15.50;;;1.55;;
29344;SDS011;16339;48.748;2.222;2023-10-19T10:44:59;4.70;;;1.58;;
29344;SDS011;16339;48.748;2.222;2023-10-19T10:47:44;8.05;;;1.40;;
29344;SDS011;16339;48.748;2.222;2023-10-19T11:05:47;11.48;;;2.03;;
29344;SDS011;16339;48.748;2.222;2023-10-19T11:08:24;8.95;;;1.60;;
29344;SDS011;16339;48.748;2.222;2023-10-19T11:14:08;11.23;;;2.08;;
29344;SDS011;16339;48.748;2.222;2023-10-19T11:16:40;11.55;;;2.13;;
29344;SDS011;16339;48.748;2.222;2023-10-19T11:19:08;6.80;;;1.85;;
29344;SDS011;16339;48.748;2.222;2023-10-19T11:21:50;7.13;;;1.77;;
29344;SDS011;16339;48.748;2.222;2023-10-19T11:24:26;7.15;;;1.50;;
29344;SDS011;16339;48.748;2.222;2023-10-19T11:27:02;12.18;;;2.05;;
29344;SDS011;16339;48.748;2.222;2023-10-19T11:29:32;8.20;;;1.97;;
29344;SDS011;16339;48.748;2.222;2023-10-19T11:32:01;9.52;;;1.83;;
29344;SDS011;16339;48.748;2.222;2023-10-19T11:34:31;14.43;;;1.88;;
29344;SDS011;16339;48.748;2.222;2023-10-19T11:37:02;6.72;;;1.55;;
29344;SDS011;16339;48.748;2.222;2023-10-19T11:39:33;8.93;;;1.70;;
29344;SDS011;16339;48.748;2.222;2023-10-19T11:44:44;6.68;;;2.15;;
29344;SDS011;16339;48.748;2.222;2023-10-19T11:47:16;6.35;;;1.50;;
29344;SDS011;16339;48.748;2.222;2023-10-19T11:49:46;12.18;;;1.80;;
29344;SDS011;16339;48.748;2.222;2023-10-19T11:52:18;6.70;;;1.50;;
29344;SDS011;16339;48.748;2.222;2023-10-19T11:55:04;8.05;;;1.70;;
29344;SDS011;16339;48.748;2.222;2023-10-19T11:57:34;8.68;;;1.95;;
29344;SDS011;16339;48.748;2.222;2023-10-19T12:00:03;6.05;;;1.75;;
29344;SDS011;16339;48.748;2.222;2023-10-19T12:02:34;6.75;;;1.40;;
29344;SDS011;16339;48.748;2.222;2023-10-19T12:05:09;6.82;;;1.73;;
29344;SDS011;16339;48.748;2.222;2023-10-19T12:08:20;9.43;;;1.77;;
29344;SDS011;16339;48.748;2.222;2023-10-19T12:11:04;9.87;;;1.80;;
29344;SDS011;16339;48.748;2.222;2023-10-19T12:13:40;5.63;;;1.25;;
29344;SDS011;16339;48.748;2.222;2023-10-19T12:16:09;5.75;;;1.38;;
29344;SDS011;16339;48.748;2.222;2023-10-19T12:18:38;9.73;;;1.60;;
29344;SDS011;16339;48.748;2.222;2023-10-19T12:21:07;8.27;;;1.58;;
29344;SDS011;16339;48.748;2.222;2023-10-19T12:23:42;6.57;;;1.52;;
29344;SDS011;16339;48.748;2.222;2023-10-19T12:26:16;12.77;;;2.13;;
29344;SDS011;16339;48.748;2.222;2023-10-19T12:28:45;5.22;;;1.50;;
29344;SDS011;16339;48.748;2.222;2023-10-19T12:31:14;9.55;;;1.50;;
29344;SDS011;16339;48.748;2.222;2023-10-19T12:33:44;7.30;;;1.35;;
29344;SDS011;16339;48.748;2.222;2023-10-19T12:36:13;4.40;;;1.40;;
29344;SDS011;16339;48.748;2.222;2023-10-19T12:38:59;7.93;;;1.55;;
29344;SDS011;16339;48.748;2.222;2023-10-19T12:41:30;7.72;;;1.77;;
29344;SDS011;16339;48.748;2.222;2023-10-19T12:43:59;5.03;;;1.50;;
29344;SDS011;16339;48.748;2.222;2023-10-19T12:46:33;7.30;;;1.80;;
29344;SDS011;16339;48.748;2.222;2023-10-19T12:49:03;9.60;;;1.40;;
29344;SDS011;16339;48.748;2.222;2023-10-19T12:51:33;3.35;;;1.55;;
29344;SDS011;16339;48.748;2.222;2023-10-19T12:54:06;9.05;;;1.50;;
29344;SDS011;16339;48.748;2.222;2023-10-19T12:56:36;6.72;;;1.48;;
29344;SDS011;16339;48.748;2.222;2023-10-19T12:59:04;7.90;;;1.92;;
29344;SDS011;16339;48.748;2.222;2023-10-19T13:01:33;6.32;;;1.65;;
29344;SDS011;16339;48.748;2.222;2023-10-19T13:04:03;13.73;;;1.92;;
29344;SDS011;16339;48.748;2.222;2023-10-19T13:06:39;9.48;;;1.70;;
29344;SDS011;16339;48.748;2.222;2023-10-19T13:12:20;12.52;;;1.85;;
29344;SDS011;16339;48.748;2.222;2023-10-19T13:14:54;9.35;;;1.52;;
29344;SDS011;16339;48.748;2.222;2023-10-19T13:33:49;8.52;;;1.95;;
29344;SDS011;16339;48.748;2.222;2023-10-19T13:50:00;9.98;;;2.08;;
29344;SDS011;16339;48.748;2.222;2023-10-19T13:52:30;18.30;;;3.13;;
29344;SDS011;16339;48.748;2.222;2023-10-19T14:14:05;5.45;;;1.70;;
29344;SDS011;16339;48.748;2.222;2023-10-19T14:16:36;6.47;;;1.70;;
29344;SDS011;16339;48.748;2.222;2023-10-19T14:19:04;6.93;;;1.92;;
29344;SDS011;16339;48.748;2.222;2023-10-19T14:21:33;8.60;;;1.75;;
29344;SDS011;16339;48.748;2.222;2023-10-19T14:24:05;2.72;;;1.27;;
29344;SDS011;16339;48.748;2.222;2023-10-19T14:26:35;7.38;;;1.73;;
29344;SDS011;16339;48.748;2.222;2023-10-19T14:29:08;6.88;;;2.33;;
29344;SDS011;16339;48.748;2.222;2023-10-19T14:31:38;11.50;;;2.22;;
29344;SDS011;16339;48.748;2.222;2023-10-19T14:34:09;3.72;;;1.40;;
29344;SDS011;16339;48.748;2.222;2023-10-19T14:36:38;9.27;;;2.58;;
29344;SDS011;16339;48.748;2.222;2023-10-19T14:39:06;9.30;;;2.17;;
29344;SDS011;16339;48.748;2.222;2023-10-19T14:41:39;5.57;;;2.00;;
29344;SDS011;16339;48.748;2.222;2023-10-19T14:44:10;13.77;;;1.98;;
29344;SDS011;16339;48.748;2.222;2023-10-19T14:46:39;15.40;;;2.25;;
29344;SDS011;16339;48.748;2.222;2023-10-19T14:49:08;12.32;;;2.28;;
29344;SDS011;16339;48.748;2.222;2023-10-19T14:51:36;5.28;;;2.40;;
29344;SDS011;16339;48.748;2.222;2023-10-19T14:54:06;10.32;;;2.50;;
29344;SDS011;16339;48.748;2.222;2023-10-19T14:56:36;6.20;;;2.17;;
29344;SDS011;16339;48.748;2.222;2023-10-19T14:59:05;7.03;;;2.10;;
29344;SDS011;16339;48.748;2.222;2023-10-19T15:01:36;10.98;;;2.70;;
29344;SDS011;16339;48.748;2.222;2023-10-19T15:06:33;6.25;;;2.10;;
29344;SDS011;16339;48.748;2.222;2023-10-19T15:09:02;8.00;;;2.42;;
29344;SDS011;16339;48.748;2.222;2023-10-19T15:11:31;6.50;;;1.80;;
29344;SDS011;16339;48.748;2.222;2023-10-19T15:14:00;6.72;;;1.75;;
29344;SDS011;16339;48.748;2.222;2023-10-19T15:16:30;7.72;;;1.75;;
29344;SDS011;16339;48.748;2.222;2023-10-19T15:19:02;11.10;;;2.17;;
29344;SDS011;16339;48.748;2.222;2023-10-19T15:21:30;6.97;;;2.00;;
29344;SDS011;16339;48.748;2.222;2023-10-19T15:23:59;5.85;;;2.08;;
29344;SDS011;16339;48.748;2.222;2023-10-19T15:26:32;5.82;;;1.30;;
29344;SDS011;16339;48.748;2.222;2023-10-19T15:29:05;12.07;;;2.20;;
29344;SDS011;16339;48.748;2.222;2023-10-19T15:34:51;4.05;;;1.95;;
29344;SDS011;16339;48.748;2.222;2023-10-19T15:39:48;6.32;;;2.00;;
29344;SDS011;16339;48.748;2.222;2023-10-19T15:42:17;10.85;;;2.03;;
29344;SDS011;16339;48.748;2.222;2023-10-19T15:44:47;8.15;;;1.50;;
29344;SDS011;16339;48.748;2.222;2023-10-19T15:47:16;3.92;;;1.73;;
29344;SDS011;16339;48.748;2.222;2023-10-19T15:49:52;5.32;;;2.20;;
29344;SDS011;16339;48.748;2.222;2023-10-19T15:52:26;11.60;;;1.58;;
29344;SDS011;16339;48.748;2.222;2023-10-19T16:04:15;5.80;;;1.45;;
29344;SDS011;16339;48.748;2.222;2023-10-19T16:06:48;8.57;;;1.95;;
29344;SDS011;16339;48.748;2.222;2023-10-19T16:09:17;6.35;;;1.65;;
29344;SDS011;16339;48.748;2.222;2023-10-19T16:11:46;5.85;;;1.92;;
29344;SDS011;16339;48.748;2.222;2023-10-19T16:29:44;4.20;;;1.90;;
29344;SDS011;16339;48.748;2.222;2023-10-19T16:32:13;4.82;;;1.80;;
29344;SDS011;16339;48.748;2.222;2023-10-19T16:34:51;7.90;;;1.80;;
29344;SDS011;16339;48.748;2.222;2023-10-19T16:37:30;5.07;;;1.80;;
29344;SDS011;16339;48.748;2.222;2023-10-19T16:39:59;4.55;;;1.88;;
29344;SDS011;16339;48.748;2.222;2023-10-19T16:43:06;4.65;;;1.90;;
29344;SDS011;16339;48.748;2.222;2023-10-19T16:46:00;5.67;;;1.77;;
29344;SDS011;16339;48.748;2.222;2023-10-19T16:48:43;5.10;;;2.47;;
29344;SDS011;16339;48.748;2.222;2023-10-19T16:51:50;7.00;;;3.05;;
29344;SDS011;16339;48.748;2.222;2023-10-19T16:54:42;3.55;;;2.15;;
29344;SDS011;16339;48.748;2.222;2023-10-19T17:00:06;6.20;;;2.10;;
29344;SDS011;16339;48.748;2.222;2023-10-19T17:03:09;7.00;;;2.35;;
29344;SDS011;16339;48.748;2.222;2023-10-19T17:09:08;5.25;;;1.88;;
29344;SDS011;16339;48.748;2.222;2023-10-19T17:14:40;6.57;;;2.10;;
29344;SDS011;16339;48.748;2.222;2023-10-19T17:17:38;2.47;;;1.73;;
29344;SDS011;16339;48.748;2.222;2023-10-19T17:20:35;2.67;;;1.48;;
29344;SDS011;16339;48.748;2.222;2023-10-19T17:23:15;1.98;;;1.50;;
29344;SDS011;16339;48.748;2.222;2023-10-19T17:25:51;5.78;;;1.63;;
29344;SDS011;16339;48.748;2.222;2023-10-19T17:28:32;4.78;;;1.83;;
29344;SDS011;16339;48.748;2.222;2023-10-19T17:31:24;4.13;;;1.90;;
29344;SDS011;16339;48.748;2.222;2023-10-19T17:34:21;5.72;;;2.10;;
29344;SDS011;16339;48.748;2.222;2023-10-19T17:37:04;2.63;;;1.65;;
29344;SDS011;16339;48.748;2.222;2023-10-19T17:40:07;6.68;;;2.63;;
29344;SDS011;16339;48.748;2.222;2023-10-19T17:46:23;3.38;;;1.50;;
29344;SDS011;16339;48.748;2.222;2023-10-19T17:49:02;3.30;;;1.65;;
29344;SDS011;16339;48.748;2.222;2023-10-19T17:51:42;5.40;;;1.98;;
29344;SDS011;16339;48.748;2.222;2023-10-19T17:54:23;7.57;;;3.53;;
29344;SDS011;16339;48.748;2.222;2023-10-19T17:56:53;7.10;;;3.60;;
29344;SDS011;16339;48.748;2.222;2023-10-19T17:59:37;4.70;;;2.03;;
29344;SDS011;16339;48.748;2.222;2023-10-19T18:02:41;3.13;;;1.60;;
29344;SDS011;16339;48.748;2.222;2023-10-19T18:05:35;2.45;;;1.58;;
29344;SDS011;16339;48.748;2.222;2023-10-19T18:09:06;6.88;;;1.70;;
29344;SDS011;16339;48.748;2.222;2023-10-19T18:11:39;3.38;;;1.73;;
29344;SDS011;16339;48.748;2.222;2023-10-19T18:14:52;3.30;;;1.80;;
29344;SDS011;16339;48.748;2.222;2023-10-19T18:20:45;2.78;;;1.60;;
29344;SDS011;16339;48.748;2.222;2023-10-19T18:23:35;4.40;;;1.73;;
29344;SDS011;16339;48.748;2.222;2023-10-19T18:26:16;4.03;;;2.20;;
29344;SDS011;16339;48.748;2.222;2023-10-19T18:29:16;3.03;;;1.83;;
29344;SDS011;16339;48.748;2.222;2023-10-19T18:38:31;5.65;;;2.05;;
29344;SDS011;16339;48.748;2.222;2023-10-19T18:41:41;4.35;;;1.60;;
29344;SDS011;16339;48.748;2.222;2023-10-19T18:44:54;6.53;;;1.92;;
29344;SDS011;16339;48.748;2.222;2023-10-19T18:48:13;2.97;;;1.88;;
29344;SDS011;16339;48.748;2.222;2023-10-19T18:51:13;2.13;;;1.50;;
29344;SDS011;16339;48.748;2.222;2023-10-19T18:57:45;4.75;;;1.77;;
29344;SDS011;16339;48.748;2.222;2023-10-19T19:00:24;6.22;;;1.90;;
29344;SDS011;16339;48.748;2.222;2023-10-19T19:03:05;4.68;;;1.70;;
29344;SDS011;16339;48.748;2.222;2023-10-19T19:06:06;2.08;;;1.50;;
29344;SDS011;16339;48.748;2.222;2023-10-19T19:09:18;3.53;;;1.50;;
29344;SDS011;16339;48.748;2.222;2023-10-19T19:12:11;2.95;;;1.70;;
29344;SDS011;16339;48.748;2.222;2023-10-19T19:15:15;4.95;;;1.63;;
29344;SDS011;16339;48.748;2.222;2023-10-19T19:18:00;3.40;;;1.70;;
29344;SDS011;16339;48.748;2.222;2023-10-19T19:20:32;2.90;;;1.40;;
29344;SDS011;16339;48.748;2.222;2023-10-19T19:35:31;3.22;;;1.98;;
29344;SDS011;16339;48.748;2.222;2023-10-19T19:38:20;8.38;;;1.95;;
29344;SDS011;16339;48.748;2.222;2023-10-19T19:41:16;7.90;;;2.30;;
29344;SDS011;16339;48.748;2.222;2023-10-19T19:44:31;4.75;;;2.00;;
29344;SDS011;16339;48.748;2.222;2023-10-19T19:47:29;7.05;;;2.72;;
29344;SDS011;16339;48.748;2.222;2023-10-19T19:50:02;19.90;;;11.45;;
29344;SDS011;16339;48.748;2.222;2023-10-19T19:52:55;3.03;;;2.38;;
29344;SDS011;16339;48.748;2.222;2023-10-19T19:55:58;5.93;;;2.35;;
29344;SDS011;16339;48.748;2.222;2023-10-19T19:58:48;2.90;;;2.13;;
29344;SDS011;16339;48.748;2.222;2023-10-19T20:01:43;4.85;;;2.47;;
29344;SDS011;16339;48.748;2.222;2023-10-19T20:04:34;2.83;;;1.90;;